createdAt,value
2019-02-04T00:00:34.798Z,1.10
2019-02-04T00:03:05.059Z,1.10
2019-02-04T00:05:33.525Z,1.10
2019-02-04T00:08:02.020Z,1.10
2019-02-04T00:10:30.587Z,1.10
2019-02-04T00:12:59.799Z,1.00
2019-02-04T00:15:28.369Z,1.00
2019-02-04T00:17:56.860Z,1.00
2019-02-04T00:20:25.387Z,1.00
2019-02-04T00:22:54.261Z,1.00
2019-02-04T00:25:24.461Z,1.00
2019-02-04T00:27:53.520Z,1.00
2019-02-04T00:30:25.107Z,1.00
2019-02-04T00:32:53.680Z,1.00
2019-02-04T00:35:22.260Z,1.00
2019-02-04T00:37:50.754Z,1.10
2019-02-04T00:40:25.009Z,1.10
2019-02-04T00:42:53.569Z,1.00
2019-02-04T00:45:22.153Z,1.00
2019-02-04T00:47:50.829Z,1.00
2019-02-04T00:50:21.153Z,1.00
2019-02-04T00:52:49.695Z,0.90
2019-02-04T00:55:18.312Z,0.90
2019-02-04T00:57:46.812Z,0.90
2019-02-04T01:00:29.948Z,0.90
2019-02-04T01:02:58.512Z,1.00
2019-02-04T01:05:27.205Z,1.00
2019-02-04T01:07:56.153Z,1.00
2019-02-04T01:10:29.772Z,1.00
2019-02-04T01:12:59.183Z,1.00
2019-02-04T01:15:27.944Z,1.00
2019-02-04T01:17:57.012Z,0.90
2019-02-04T01:20:29.901Z,0.90
2019-02-04T01:22:58.967Z,1.00
2019-02-04T01:25:28.240Z,1.00
2019-02-04T01:27:57.200Z,0.90
2019-02-04T01:30:25.817Z,0.90
2019-02-04T01:32:54.613Z,0.90
2019-02-04T01:35:23.394Z,0.90
2019-02-04T01:37:52.245Z,0.90
2019-02-04T01:40:26.152Z,0.80
2019-02-04T01:42:55.984Z,0.70
2019-02-04T01:45:25.258Z,0.70
2019-02-04T01:47:53.838Z,0.70
2019-02-04T01:50:23.327Z,0.70
2019-02-04T01:52:56.825Z,0.70
2019-02-04T01:55:25.333Z,0.70
2019-02-04T01:57:55.524Z,0.70
2019-02-04T02:00:27.021Z,0.60
2019-02-04T02:02:56.078Z,0.60
2019-02-04T02:05:24.640Z,0.60
2019-02-04T02:07:53.619Z,0.60
2019-02-04T02:10:24.240Z,0.50
2019-02-04T02:12:53.435Z,0.50
2019-02-04T02:15:22.129Z,0.50
2019-02-04T02:17:50.874Z,0.50
2019-02-04T02:20:22.146Z,0.50
2019-02-04T02:22:50.785Z,0.50
2019-02-04T02:25:19.329Z,0.60
2019-02-04T02:27:47.901Z,0.60
2019-02-04T02:30:22.714Z,0.70
2019-02-04T02:32:51.209Z,0.70
2019-02-04T02:35:19.693Z,0.70
2019-02-04T02:37:48.248Z,0.70
2019-02-04T02:40:22.590Z,0.70
2019-02-04T02:42:51.252Z,0.70
2019-02-04T02:45:20.216Z,0.70
2019-02-04T02:47:49.988Z,0.60
2019-02-04T02:50:18.644Z,0.60
2019-02-04T02:52:47.193Z,0.60
2019-02-04T02:55:17.993Z,0.60
2019-02-04T02:57:46.687Z,0.60
2019-02-04T03:00:21.569Z,0.60
2019-02-04T03:02:50.108Z,0.60
2019-02-04T03:05:18.916Z,0.60
2019-02-04T03:07:47.573Z,0.60
2019-02-04T03:10:21.814Z,0.60
2019-02-04T03:12:50.952Z,0.50
2019-02-04T03:15:19.649Z,0.50
2019-02-04T03:17:52.154Z,0.40
2019-02-04T03:20:18.528Z,0.30
2019-02-04T03:22:47.057Z,0.30
2019-02-04T03:25:15.892Z,0.30
2019-02-04T03:27:44.887Z,0.40
2019-02-04T03:30:19.668Z,0.30
2019-02-04T03:32:48.217Z,0.30
2019-02-04T03:35:16.902Z,0.30
2019-02-04T03:37:45.413Z,0.30
2019-02-04T03:40:17.357Z,0.30
2019-02-04T03:42:45.910Z,0.20
2019-02-04T03:45:14.750Z,0.20
2019-02-04T03:47:43.450Z,0.30
2019-02-04T03:50:13.630Z,0.20
2019-02-04T03:52:42.279Z,0.20
2019-02-04T03:55:13.274Z,0.10
2019-02-04T03:57:41.837Z,0.10
2019-02-04T04:00:18.736Z,0.10
2019-02-04T04:02:47.220Z,0.10
2019-02-04T04:05:15.826Z,0.10
2019-02-04T04:07:44.989Z,0.20
2019-02-04T04:10:15.644Z,0.20
2019-02-04T04:12:44.310Z,0.20
2019-02-04T04:15:14.632Z,0.20
2019-02-04T04:17:43.273Z,0.20
2019-02-04T04:20:17.016Z,0.10
2019-02-04T04:22:45.705Z,0.00
2019-02-04T04:25:16.861Z,0.00
2019-02-04T04:27:45.757Z,0.00
2019-02-04T04:30:17.304Z,0.00
2019-02-04T04:33:00.799Z,0.00
2019-02-04T04:35:29.295Z,0.00
2019-02-04T04:37:58.140Z,0.00
2019-02-04T04:40:26.721Z,0.00
2019-02-04T04:42:55.328Z,0.10
2019-02-04T04:45:25.928Z,0.10
2019-02-04T04:47:54.487Z,0.00
2019-02-04T04:50:23.045Z,0.00
2019-02-04T04:52:51.853Z,0.00
2019-02-04T04:55:25.558Z,0.00
2019-02-04T04:57:54.381Z,0.00
2019-02-04T05:00:28.498Z,0.00
2019-02-04T05:03:12.578Z,0.00
2019-02-04T05:05:41.307Z,0.10
2019-02-04T05:08:09.859Z,0.10
2019-02-04T05:10:38.518Z,0.10
2019-02-04T05:13:07.117Z,0.10
2019-02-04T05:15:35.716Z,0.10
2019-02-04T05:18:04.303Z,0.10
2019-02-04T05:20:33.210Z,0.00
2019-02-04T05:23:01.760Z,0.00
2019-02-04T05:25:30.320Z,0.00
2019-02-04T05:27:58.801Z,0.10
2019-02-04T05:30:27.432Z,0.10
2019-02-04T05:32:55.892Z,0.10
2019-02-04T05:35:24.444Z,0.10
2019-02-04T05:37:53.116Z,0.10
2019-02-04T05:40:21.765Z,0.10
2019-02-04T05:42:50.411Z,0.10
2019-02-04T05:45:20.497Z,0.10
2019-02-04T05:47:49.209Z,0.10
2019-02-04T05:50:19.487Z,0.00
2019-02-04T05:52:49.394Z,0.00
2019-02-04T05:55:20.272Z,0.00
2019-02-04T05:57:48.909Z,0.00
2019-02-04T06:00:25.150Z,0.00
2019-02-04T06:02:53.909Z,0.00
2019-02-04T06:05:22.456Z,0.10
2019-02-04T06:07:51.068Z,0.10
2019-02-04T06:10:19.939Z,0.10
2019-02-04T06:12:48.426Z,0.10
2019-02-04T06:15:17.564Z,0.10
2019-02-04T06:17:46.222Z,0.10
2019-02-04T06:20:20.476Z,0.10
2019-02-04T06:22:49.116Z,0.10
2019-02-04T06:25:17.740Z,0.10
2019-02-04T06:27:46.386Z,0.00
2019-02-04T06:30:16.772Z,0.00
2019-02-04T06:32:45.316Z,0.00
2019-02-04T06:35:15.650Z,0.00
2019-02-04T06:37:46.896Z,0.00
2019-02-04T06:40:17.079Z,0.00
2019-02-04T06:42:45.817Z,0.00
2019-02-04T06:45:16.928Z,0.00
2019-02-04T06:47:45.646Z,0.00
2019-02-04T06:50:16.792Z,0.00
2019-02-04T06:52:45.513Z,-0.10
2019-02-04T06:55:17.120Z,-0.10
2019-02-04T06:57:45.793Z,-0.10
2019-02-04T07:00:17.112Z,-0.20
2019-02-04T07:02:46.108Z,-0.20
2019-02-04T07:05:15.659Z,-0.30
2019-02-04T07:07:44.353Z,-0.30
2019-02-04T07:10:16.335Z,-0.40
2019-02-04T07:12:45.074Z,-0.40
2019-02-04T07:15:14.183Z,-0.40
2019-02-04T07:17:42.894Z,-0.40
2019-02-04T07:20:15.085Z,-0.40
2019-02-04T07:22:53.849Z,-0.40
2019-02-04T07:25:23.977Z,-0.50
2019-02-04T07:27:53.177Z,-0.60
2019-02-04T07:30:24.749Z,-0.60
2019-02-04T07:32:53.797Z,-0.60
2019-02-04T07:35:22.340Z,-0.60
2019-02-04T07:37:51.108Z,-0.70
2019-02-04T07:40:25.606Z,-0.70
2019-02-04T07:42:54.588Z,-0.80
2019-02-04T07:45:23.301Z,-0.80
2019-02-04T07:47:52.153Z,-0.90
2019-02-04T07:50:20.792Z,-0.90
2019-02-04T07:52:49.418Z,-1.00
2019-02-04T07:55:18.135Z,-1.00
2019-02-04T07:57:46.785Z,-1.00
2019-02-04T08:00:21.442Z,-0.90
2019-02-04T08:02:50.568Z,-0.90
2019-02-04T08:05:19.265Z,-0.90
2019-02-04T08:07:47.939Z,-0.80
2019-02-04T08:10:17.631Z,-0.80
2019-02-04T08:12:46.341Z,-0.80
2019-02-04T08:15:20.874Z,-0.80
2019-02-04T08:17:49.437Z,-0.80
2019-02-04T08:20:17.969Z,-0.70
2019-02-04T08:22:46.686Z,-0.70
2019-02-04T08:25:16.990Z,-0.70
2019-02-04T08:27:45.528Z,-0.70
2019-02-04T08:30:23.739Z,-0.70
2019-02-04T08:32:52.308Z,-0.60
2019-02-04T08:35:20.935Z,-0.60
2019-02-04T08:37:49.508Z,-0.60
2019-02-04T08:40:19.477Z,-0.60
2019-02-04T08:42:48.187Z,-0.60
2019-02-04T08:45:17.172Z,-0.60
2019-02-04T08:47:46.188Z,-0.50
2019-02-04T08:50:20.524Z,-0.50
2019-02-04T08:52:49.166Z,-0.50
2019-02-04T08:55:18.181Z,-0.50
2019-02-04T08:57:46.855Z,-0.50
2019-02-04T09:00:23.361Z,-0.50
2019-02-04T09:02:52.044Z,-0.50
2019-02-04T09:05:21.982Z,-0.50
2019-02-04T09:07:50.602Z,-0.40
2019-02-04T09:10:22.092Z,-0.30
2019-02-04T09:12:51.128Z,-0.30
2019-02-04T09:15:20.000Z,-0.30
2019-02-04T09:17:48.652Z,-0.20
2019-02-04T09:20:20.441Z,-0.20
2019-02-04T09:23:19.391Z,-0.10
2019-02-04T09:25:47.953Z,0.00
2019-02-04T09:28:16.516Z,0.10
2019-02-04T09:30:45.048Z,0.10
2019-02-04T09:33:13.606Z,0.00
2019-02-04T09:35:42.139Z,0.10
2019-02-04T09:38:11.085Z,0.20
2019-02-04T09:40:42.185Z,0.30
2019-02-04T09:43:10.896Z,0.30
2019-02-04T09:45:40.180Z,0.40
2019-02-04T09:48:14.488Z,0.50
2019-02-04T09:50:46.872Z,0.60
2019-02-04T09:53:15.384Z,0.70
2019-02-04T09:55:43.952Z,0.80
2019-02-04T09:58:12.617Z,0.90
2019-02-04T10:00:41.258Z,0.90
2019-02-04T10:03:09.805Z,1.00
2019-02-04T10:05:38.620Z,1.00
2019-02-04T10:08:08.152Z,1.10
2019-02-04T10:10:36.783Z,1.20
2019-02-04T10:13:20.620Z,1.20
2019-02-04T10:15:49.159Z,1.30
2019-02-04T10:18:17.697Z,1.40
2019-02-04T10:20:46.323Z,1.60
2019-02-04T10:23:14.823Z,1.60
2019-02-04T10:25:44.217Z,1.60
2019-02-04T10:28:15.275Z,1.70
2019-02-04T10:30:44.526Z,1.60
2019-02-04T10:33:13.645Z,1.60
2019-02-04T10:35:42.946Z,1.70
2019-02-04T10:38:11.651Z,1.70
2019-02-04T10:40:40.362Z,1.80
2019-02-04T10:43:09.158Z,1.70
2019-02-04T10:45:37.696Z,1.80
2019-02-04T10:48:06.918Z,1.70
2019-02-04T10:50:45.662Z,1.70
2019-02-04T10:53:10.335Z,1.80
2019-02-04T10:55:40.486Z,2.10
2019-02-04T10:58:11.689Z,2.30
2019-02-04T11:00:41.141Z,2.60
2019-02-04T11:03:09.865Z,2.80
2019-02-04T11:05:40.986Z,2.90
2019-02-04T11:08:12.285Z,3.00
2019-02-04T11:10:41.645Z,3.20
2019-02-04T11:13:13.049Z,3.50
2019-02-04T11:15:42.426Z,3.60
2019-02-04T11:18:11.633Z,3.90
2019-02-04T11:20:40.678Z,4.00
2019-02-04T11:23:10.067Z,4.20
2019-02-04T11:25:38.930Z,4.20
2019-02-04T11:28:08.856Z,4.40
2019-02-04T11:30:40.945Z,4.50
2019-02-04T11:33:10.482Z,4.60
2019-02-04T11:35:39.131Z,4.50
2019-02-04T11:38:07.859Z,4.70
2019-02-04T11:40:38.683Z,4.90
2019-02-04T11:43:08.269Z,5.10
2019-02-04T11:45:36.989Z,5.20
2019-02-04T11:48:08.870Z,5.40
2019-02-04T11:50:37.580Z,5.40
2019-02-04T11:53:06.203Z,5.50
2019-02-04T11:55:34.735Z,5.30
2019-02-04T11:58:04.205Z,5.50
2019-02-04T12:00:34.288Z,5.50
2019-02-04T12:03:05.200Z,5.50
2019-02-04T12:05:33.754Z,5.50
2019-02-04T12:08:02.292Z,5.40
2019-02-04T12:10:40.187Z,5.40
2019-02-04T12:13:08.901Z,5.50
2019-02-04T12:15:37.625Z,5.70
2019-02-04T12:18:06.489Z,5.80
2019-02-04T12:20:34.984Z,5.80
2019-02-04T12:23:03.809Z,5.70
2019-02-04T12:25:32.401Z,5.70
2019-02-04T12:28:01.028Z,5.70
2019-02-04T12:30:35.057Z,5.50
2019-02-04T12:33:05.417Z,5.30
2019-02-04T12:35:34.073Z,5.00
2019-02-04T12:38:02.718Z,5.10
2019-02-04T12:40:31.741Z,5.00
2019-02-04T12:43:00.429Z,4.70
2019-02-04T12:45:34.317Z,4.60
2019-02-04T12:48:03.420Z,4.60
2019-02-04T12:50:32.345Z,4.60
2019-02-04T12:53:01.063Z,4.50
2019-02-04T12:55:31.953Z,4.60
2019-02-04T12:58:00.484Z,4.50
2019-02-04T13:00:31.599Z,4.50
2019-02-04T13:03:00.431Z,4.60
2019-02-04T13:05:43.277Z,4.50
2019-02-04T13:08:12.700Z,4.40
2019-02-04T13:10:41.256Z,4.40
2019-02-04T13:13:12.367Z,4.40
2019-02-04T13:15:40.953Z,4.70
2019-02-04T13:18:10.839Z,4.80
2019-02-04T13:20:40.296Z,4.40
2019-02-04T13:23:08.882Z,4.30
2019-02-04T13:25:37.582Z,4.30
2019-02-04T13:28:08.684Z,4.40
2019-02-04T13:30:37.288Z,4.50
2019-02-04T13:33:06.016Z,4.30
2019-02-04T13:35:35.116Z,4.10
2019-02-04T13:38:04.160Z,3.90
2019-02-04T13:40:32.732Z,3.60
2019-02-04T13:43:01.188Z,3.40
2019-02-04T13:45:30.142Z,3.20
2019-02-04T13:47:58.801Z,3.10
2019-02-04T13:50:28.384Z,3.00
2019-02-04T13:53:07.523Z,2.80
2019-02-04T13:55:38.653Z,2.80
2019-02-04T13:58:08.609Z,2.70
2019-02-04T14:00:38.529Z,2.70
2019-02-04T14:03:08.220Z,2.80
2019-02-04T14:05:36.817Z,2.80
2019-02-04T14:08:06.142Z,2.70
2019-02-04T14:10:37.560Z,2.50
2019-02-04T14:13:07.037Z,2.40
2019-02-04T14:15:36.164Z,2.30
2019-02-04T14:18:06.008Z,2.20
2019-02-04T14:20:34.597Z,2.20
2019-02-04T14:23:03.764Z,2.20
2019-02-04T14:25:32.355Z,2.30
2019-02-04T14:28:03.517Z,2.40
2019-02-04T14:30:37.176Z,2.40
2019-02-04T14:33:06.284Z,2.50
2019-02-04T14:35:35.230Z,2.50
2019-02-04T14:38:05.330Z,2.50
2019-02-04T14:40:33.889Z,2.40
2019-02-04T14:43:05.545Z,2.40
2019-02-04T14:45:43.066Z,2.30
2019-02-04T14:48:46.653Z,2.30
2019-02-04T14:51:34.664Z,2.30
2019-02-04T14:54:17.453Z,2.20
2019-02-04T14:56:49.097Z,2.10
2019-02-04T14:59:20.633Z,2.00
2019-02-04T15:02:01.104Z,2.00
2019-02-04T15:04:44.720Z,2.00
2019-02-04T15:07:31.311Z,2.00
2019-02-04T15:10:20.911Z,2.00
2019-02-04T15:12:58.054Z,2.00
2019-02-04T15:15:56.612Z,2.00
2019-02-04T15:18:58.562Z,2.00
2019-02-04T15:22:03.348Z,2.00
2019-02-04T15:25:00.424Z,2.00
2019-02-04T15:27:50.099Z,2.00
2019-02-04T15:30:24.265Z,2.00
2019-02-04T15:33:01.813Z,1.90
2019-02-04T15:35:35.914Z,1.90
2019-02-04T15:38:25.520Z,1.80
2019-02-04T15:41:08.904Z,1.80
2019-02-04T15:43:46.984Z,1.80
2019-02-04T15:46:18.652Z,1.70
2019-02-04T15:48:58.889Z,1.80
2019-02-04T15:51:33.124Z,1.80
2019-02-04T15:54:01.661Z,1.80
2019-02-04T15:56:30.268Z,1.80
2019-02-04T15:58:58.846Z,1.70
2019-02-04T16:01:27.434Z,1.60
2019-02-04T16:04:28.718Z,1.60
2019-02-04T16:06:57.384Z,1.60
2019-02-04T16:09:26.434Z,1.70
2019-02-04T16:11:55.003Z,1.70
2019-02-04T16:14:23.561Z,1.70
2019-02-04T16:16:52.859Z,1.70
2019-02-04T16:19:21.429Z,1.80
2019-02-04T16:21:50.014Z,1.70
2019-02-04T16:24:18.611Z,1.50
2019-02-04T16:26:47.128Z,1.50
2019-02-04T16:29:15.636Z,1.40
2019-02-04T16:31:44.640Z,1.20
2019-02-04T16:34:13.548Z,1.20
2019-02-04T16:36:42.145Z,1.20
2019-02-04T16:39:11.395Z,1.20
2019-02-04T16:41:39.880Z,1.20
2019-02-04T16:44:09.354Z,1.20
2019-02-04T16:46:37.974Z,1.20
2019-02-04T16:49:08.040Z,1.10
2019-02-04T16:51:36.589Z,1.10
2019-02-04T16:54:05.233Z,1.10
2019-02-04T16:56:33.781Z,1.10
2019-02-04T16:59:02.459Z,1.10
2019-02-04T17:01:31.195Z,1.20
2019-02-04T17:03:59.765Z,1.20
2019-02-04T17:06:28.399Z,1.20
2019-02-04T17:08:57.059Z,1.10
2019-02-04T17:11:25.650Z,1.20
2019-02-04T17:13:54.205Z,1.20
2019-02-04T17:16:22.741Z,1.20
2019-02-04T17:18:51.685Z,1.20
2019-02-04T17:21:20.402Z,1.30
2019-02-04T17:23:48.961Z,1.30
2019-02-04T17:26:17.653Z,1.30
2019-02-04T17:28:46.152Z,1.20
2019-02-04T17:31:14.617Z,1.20
2019-02-04T17:33:43.278Z,1.10
2019-02-04T17:36:11.825Z,1.20
2019-02-04T17:38:40.296Z,1.20
2019-02-04T17:41:08.965Z,1.20
2019-02-04T17:43:37.516Z,1.20
2019-02-04T17:46:06.000Z,1.20
2019-02-04T17:48:34.592Z,1.30
2019-02-04T17:51:03.169Z,1.20
2019-02-04T17:53:34.354Z,1.20
2019-02-04T17:56:03.241Z,1.20
2019-02-04T17:58:31.810Z,1.10
2019-02-04T18:01:01.110Z,1.00
2019-02-04T18:03:29.628Z,0.90
2019-02-04T18:05:58.577Z,0.90
2019-02-04T18:08:27.158Z,0.80
2019-02-04T18:11:00.003Z,0.90
2019-02-04T18:13:27.452Z,0.90
2019-02-04T18:15:56.280Z,0.90
2019-02-04T18:18:25.098Z,0.90
2019-02-04T18:20:53.678Z,1.00
2019-02-04T18:23:22.248Z,0.90
2019-02-04T18:25:50.830Z,1.00
2019-02-04T18:28:19.610Z,1.00
2019-02-04T18:30:48.174Z,1.00
2019-02-04T18:33:16.728Z,1.10
2019-02-04T18:35:45.381Z,1.10
2019-02-04T18:38:14.037Z,1.20
2019-02-04T18:40:43.045Z,1.20
2019-02-04T18:43:11.696Z,1.10
2019-02-04T18:45:40.256Z,1.00
2019-02-04T18:48:09.056Z,0.80
2019-02-04T18:50:37.848Z,0.80
2019-02-04T18:53:06.544Z,0.70
2019-02-04T18:55:35.083Z,0.70
2019-02-04T18:58:03.653Z,0.70
2019-02-04T19:00:33.585Z,0.60
2019-02-04T19:03:03.904Z,0.70
2019-02-04T19:05:32.529Z,0.70
2019-02-04T19:08:01.152Z,0.70
2019-02-04T19:10:29.780Z,0.70
2019-02-04T19:12:58.277Z,0.60
2019-02-04T19:15:28.880Z,0.60
2019-02-04T19:18:01.248Z,0.60
2019-02-04T19:20:29.982Z,0.60
2019-02-04T19:22:58.561Z,0.60
2019-02-04T19:25:27.299Z,0.50
2019-02-04T19:27:56.053Z,0.50
2019-02-04T19:30:33.852Z,0.50
2019-02-04T19:33:02.513Z,0.50
2019-02-04T19:35:31.069Z,0.50
2019-02-04T19:37:59.695Z,0.50
2019-02-04T19:40:28.369Z,0.50
2019-02-04T19:42:56.924Z,0.50
2019-02-04T19:45:27.541Z,0.50
2019-02-04T19:47:56.273Z,0.50
2019-02-04T19:50:27.904Z,0.50
2019-02-04T19:52:56.593Z,0.40
2019-02-04T19:55:25.522Z,0.40
2019-02-04T19:57:54.140Z,0.40
2019-02-04T20:00:23.956Z,0.40
2019-02-04T20:02:53.604Z,0.40
2019-02-04T20:05:24.704Z,0.30
2019-02-04T20:07:53.248Z,0.30
2019-02-04T20:10:24.824Z,0.20
2019-02-04T20:12:53.803Z,0.20
2019-02-04T20:15:24.994Z,0.20
2019-02-04T20:17:53.729Z,0.20
2019-02-04T20:20:22.412Z,0.20
2019-02-04T20:22:56.545Z,0.20
2019-02-04T20:25:27.733Z,0.20
2019-02-04T20:27:56.305Z,0.20
2019-02-04T20:30:31.892Z,0.10
2019-02-04T20:33:16.703Z,0.10
2019-02-04T20:35:45.345Z,0.10
2019-02-04T20:38:13.921Z,0.10
2019-02-04T20:40:42.881Z,0.20
2019-02-04T20:43:11.453Z,0.10
2019-02-04T20:45:40.233Z,0.00
2019-02-04T20:48:11.606Z,0.00
2019-02-04T20:50:45.901Z,0.00
2019-02-04T20:53:33.772Z,0.10
2019-02-04T20:56:04.067Z,0.00
2019-02-04T20:58:32.632Z,0.00
2019-02-04T21:01:01.196Z,0.00
2019-02-04T21:03:30.072Z,0.00
2019-02-04T21:05:58.759Z,0.00
2019-02-04T21:08:27.222Z,0.00
2019-02-04T21:10:55.785Z,0.10
2019-02-04T21:13:24.280Z,0.10
2019-02-04T21:15:52.848Z,0.10
2019-02-04T21:18:21.403Z,0.10
2019-02-04T21:20:49.969Z,0.10
2019-02-04T21:23:20.918Z,0.10
2019-02-04T21:25:49.552Z,0.20
2019-02-04T21:28:18.218Z,0.20
2019-02-04T21:30:46.803Z,0.20
2019-02-04T21:33:15.437Z,0.20
2019-02-04T21:35:43.977Z,0.20
2019-02-04T21:38:12.857Z,0.20
2019-02-04T21:40:41.464Z,0.20
2019-02-04T21:43:34.524Z,0.10
2019-02-04T21:46:03.110Z,0.00
2019-02-04T21:48:32.073Z,0.00
2019-02-04T21:51:00.649Z,-0.10
2019-02-04T21:53:29.236Z,-0.10
2019-02-04T21:55:57.858Z,-0.20
2019-02-04T21:58:26.433Z,-0.30
2019-02-04T22:00:54.977Z,-0.30
2019-02-04T22:03:23.574Z,-0.20
2019-02-04T22:05:52.144Z,-0.30
2019-02-04T22:08:20.864Z,-0.30
2019-02-04T22:10:49.453Z,-0.30
2019-02-04T22:13:18.001Z,-0.30
2019-02-04T22:15:47.069Z,-0.20
2019-02-04T22:18:15.649Z,-0.30
2019-02-04T22:20:44.600Z,-0.30
2019-02-04T22:23:13.190Z,-0.40
2019-02-04T22:25:42.263Z,-0.40
2019-02-04T22:28:10.854Z,-0.50
2019-02-04T22:30:39.467Z,-0.50
2019-02-04T22:33:08.075Z,-0.50
2019-02-04T22:35:36.653Z,-0.50
2019-02-04T22:38:06.248Z,-0.50
2019-02-04T22:40:34.855Z,-0.50
2019-02-04T22:43:03.505Z,-0.60
2019-02-04T22:45:32.149Z,-0.60
2019-02-04T22:48:00.649Z,-0.60
2019-02-04T22:50:31.063Z,-0.70
2019-02-04T22:53:02.338Z,-0.70
2019-02-04T22:55:32.319Z,-0.80
2019-02-04T22:58:00.917Z,-0.70
2019-02-04T23:00:51.258Z,-0.70
2019-02-04T23:03:23.036Z,-0.70
2019-02-04T23:05:51.673Z,-0.70
2019-02-04T23:08:20.249Z,-0.70
2019-02-04T23:10:48.973Z,-0.70
2019-02-04T23:13:17.718Z,-0.80
2019-02-04T23:15:46.673Z,-0.70
2019-02-04T23:18:15.469Z,-0.70
2019-02-04T23:20:44.145Z,-0.70
2019-02-04T23:23:12.844Z,-0.60
2019-02-04T23:25:43.399Z,-0.60
2019-02-04T23:28:11.870Z,-0.60
2019-02-04T23:30:40.444Z,-0.60
2019-02-04T23:33:09.080Z,-0.60
2019-02-04T23:35:37.787Z,-0.60
2019-02-04T23:38:06.500Z,-0.60
2019-02-04T23:40:35.070Z,-0.60
2019-02-04T23:43:04.102Z,-0.60
2019-02-04T23:45:32.842Z,-0.60
2019-02-04T23:48:01.847Z,-0.70
2019-02-04T23:50:30.414Z,-0.70
2019-02-04T23:52:59.005Z,-0.70
2019-02-04T23:55:27.716Z,-0.70
2019-02-04T23:57:56.321Z,-0.80
